Time;durP1;ratioP1;P1;durP2;ratioP2;P2;SDS_P1;SDS_P2;PMS_P1;PMS_P2;Temp;Humidity;BMP_temperature;BMP_pressure;BME280_temperature;BME280_humidity;BME280_pressure;Samples;Min_cycle;Max_cycle;Signal;HPM_P1;HPM_P2
2023/03/27 00:01:48;;;;;;;9.27;1.27;;;;;;;;;;5030920;28;20293;-67
2023/03/27 00:04:14;;;;;;;7.60;1.33;;;;;;;;;;5030254;28;20216;-67
2023/03/27 00:06:40;;;;;;;14.33;1.83;;;;;;;;;;5023745;28;20290;-67
2023/03/27 00:09:07;;;;;;;9.00;1.57;;;;;;;;;;5019379;28;20192;-67
2023/03/27 00:11:33;;;;;;;11.03;1.60;;;;;;;;;;5019629;28;20202;-67
2023/03/27 00:13:59;;;;;;;13.80;1.43;;;;;;;;;;5019036;28;20248;-68
2023/03/27 00:16:25;;;;;;;9.67;1.73;;;;;;;;;;5028130;28;20193;-67
2023/03/27 00:18:51;;;;;;;11.67;1.70;;;;;;;;;;5026660;28;20194;-67
2023/03/27 00:21:18;;;;;;;6.50;1.70;;;;;;;;;;5044622;28;20186;-67
2023/03/27 00:23:43;;;;;;;6.00;2.13;;;;;;;;;;5031627;28;20197;-67
2023/03/27 00:26:10;;;;;;;8.23;2.13;;;;;;;;;;5031589;28;20190;-67
2023/03/27 00:28:35;;;;;;;10.40;2.20;;;;;;;;;;5026269;28;20246;-67
2023/03/27 00:31:01;;;;;;;15.27;2.87;;;;;;;;;;5020520;28;20490;-67
2023/03/27 00:33:26;;;;;;;14.77;3.57;;;;;;;;;;5022910;28;20560;-67
2023/03/27 00:35:52;;;;;;;11.20;2.27;;;;;;;;;;5029776;28;20194;-67
2023/03/27 00:38:18;;;;;;;8.13;2.13;;;;;;;;;;5029708;28;20190;-67
2023/03/27 00:40:45;;;;;;;7.67;1.90;;;;;;;;;;5022619;28;20201;-67
2023/03/27 00:43:26;;;;;;;8.07;2.03;;;;;;;;;;5028226;28;20264;-67
2023/03/27 00:46:00;;;;;;;12.93;2.93;;;;;;;;;;5029057;28;20560;-68
2023/03/27 00:48:27;;;;;;;10.23;2.20;;;;;;;;;;5025249;28;20189;-67
2023/03/27 00:50:55;;;;;;;10.77;2.37;;;;;;;;;;5029588;28;20217;-67
2023/03/27 00:53:25;;;;;;;13.27;2.10;;;;;;;;;;5026391;28;20193;-67
2023/03/27 00:55:54;;;;;;;14.30;2.93;;;;;;;;;;5021960;28;20498;-68
2023/03/27 00:58:25;;;;;;;12.60;1.67;;;;;;;;;;5024266;28;20228;-68
2023/03/27 01:00:52;;;;;;;11.77;1.57;;;;;;;;;;5020782;28;20860;-67
2023/03/27 01:03:19;;;;;;;11.50;1.70;;;;;;;;;;5018635;28;22816;-67
2023/03/27 01:05:44;;;;;;;7.00;2.10;;;;;;;;;;5028351;28;20554;-67
2023/03/27 01:08:11;;;;;;;9.37;1.80;;;;;;;;;;5030115;28;20194;-68
2023/03/27 01:10:58;;;;;;;11.50;2.10;;;;;;;;;;5026878;28;20194;-67
2023/03/27 01:13:35;;;;;;;15.03;1.70;;;;;;;;;;5027207;28;20590;-67
2023/03/27 01:16:16;;;;;;;14.13;1.90;;;;;;;;;;5026229;28;20555;-67
2023/03/27 01:19:21;;;;;;;15.37;2.27;;;;;;;;;;5021310;28;20233;-67
2023/03/27 01:22:30;;;;;;;12.63;2.43;;;;;;;;;;5021652;28;20253;-67
2023/03/27 01:25:14;;;;;;;9.53;2.30;;;;;;;;;;5027350;28;20247;-67
2023/03/27 01:28:03;;;;;;;9.50;1.77;;;;;;;;;;5019580;28;20197;-68
2023/03/27 01:30:34;;;;;;;12.63;2.67;;;;;;;;;;5024378;28;20222;-67
2023/03/27 01:33:41;;;;;;;10.13;2.30;;;;;;;;;;5022810;28;20257;-68
2023/03/27 01:36:45;;;;;;;14.03;2.50;;;;;;;;;;4982503;28;20195;-68
2023/03/27 01:39:23;;;;;;;12.13;2.03;;;;;;;;;;4980477;28;20631;-67
2023/03/27 01:42:21;;;;;;;11.03;1.90;;;;;;;;;;5016456;28;20246;-68
2023/03/27 01:45:00;;;;;;;11.70;2.07;;;;;;;;;;5024108;28;20680;-67
2023/03/27 01:47:31;;;;;;;11.70;2.40;;;;;;;;;;5024387;28;20370;-67
2023/03/27 01:50:09;;;;;;;10.97;2.00;;;;;;;;;;5016886;28;20222;-66
2023/03/27 01:52:39;;;;;;;11.03;2.20;;;;;;;;;;5025829;28;20221;-67
2023/03/27 01:55:10;;;;;;;11.10;2.00;;;;;;;;;;5026102;28;20682;-66
2023/03/27 01:57:41;;;;;;;10.10;2.27;;;;;;;;;;5020075;28;20673;-67
2023/03/27 02:00:16;;;;;;;13.77;2.23;;;;;;;;;;5028788;28;20210;-66
2023/03/27 02:02:48;;;;;;;10.17;1.80;;;;;;;;;;5020103;28;20642;-66
2023/03/27 02:05:21;;;;;;;8.40;1.63;;;;;;;;;;5018426;28;20205;-67
2023/03/27 02:07:52;;;;;;;8.47;2.20;;;;;;;;;;5025144;28;20210;-67
2023/03/27 02:10:25;;;;;;;14.30;2.07;;;;;;;;;;5018937;28;20215;-67
2023/03/27 02:13:03;;;;;;;18.70;5.53;;;;;;;;;;5020538;28;20768;-67
2023/03/27 02:15:32;;;;;;;6.13;1.80;;;;;;;;;;5022353;28;20621;-67
2023/03/27 02:18:04;;;;;;;8.27;1.40;;;;;;;;;;5026915;28;20280;-67
2023/03/27 02:20:34;;;;;;;7.73;1.20;;;;;;;;;;5028981;28;20293;-66
2023/03/27 02:23:00;;;;;;;10.83;1.70;;;;;;;;;;5028438;28;20615;-67
2023/03/27 02:25:33;;;;;;;10.03;1.43;;;;;;;;;;5023510;28;20204;-67
2023/03/27 02:28:14;;;;;;;8.17;1.33;;;;;;;;;;5019258;28;20591;-67
2023/03/27 02:31:01;;;;;;;9.50;1.07;;;;;;;;;;5023897;28;20521;-67
2023/03/27 02:33:33;;;;;;;6.37;1.03;;;;;;;;;;5026669;28;20240;-67
2023/03/27 02:36:08;;;;;;;7.00;1.20;;;;;;;;;;5016641;28;20642;-67
2023/03/27 02:38:46;;;;;;;8.57;1.47;;;;;;;;;;5020560;28;20194;-67
2023/03/27 02:41:27;;;;;;;10.17;1.77;;;;;;;;;;5020357;28;20193;-66
2023/03/27 02:44:05;;;;;;;9.20;1.40;;;;;;;;;;5020181;28;20214;-67
2023/03/27 02:46:37;;;;;;;6.97;1.20;;;;;;;;;;5024931;28;20193;-66
2023/03/27 02:49:08;;;;;;;11.77;1.50;;;;;;;;;;5012727;28;20221;-67
2023/03/27 02:51:54;;;;;;;12.57;2.23;;;;;;;;;;5014590;28;20225;-66
2023/03/27 02:54:39;;;;;;;7.17;1.80;;;;;;;;;;5026461;28;20197;-67
2023/03/27 02:57:09;;;;;;;12.10;1.90;;;;;;;;;;5020719;28;20202;-66
2023/03/27 02:59:39;;;;;;;10.93;1.77;;;;;;;;;;5013638;28;20191;-67
2023/03/27 03:02:08;;;;;;;11.57;1.73;;;;;;;;;;5027546;28;20193;-66
2023/03/27 03:04:45;;;;;;;7.07;1.23;;;;;;;;;;5027129;28;20656;-66
2023/03/27 03:07:12;;;;;;;7.27;1.30;;;;;;;;;;5018353;28;20689;-66
2023/03/27 03:09:39;;;;;;;7.60;1.50;;;;;;;;;;5030020;28;20711;-67
2023/03/27 03:12:04;;;;;;;11.13;1.73;;;;;;;;;;5020567;28;20274;-67
2023/03/27 03:14:34;;;;;;;9.97;1.30;;;;;;;;;;5017628;28;20559;-67
2023/03/27 03:17:00;;;;;;;6.53;1.37;;;;;;;;;;5024641;28;20284;-67
2023/03/27 03:19:26;;;;;;;10.17;1.83;;;;;;;;;;5022654;28;20252;-66
2023/03/27 03:21:51;;;;;;;5.97;1.20;;;;;;;;;;5018808;28;20201;-67
2023/03/27 03:24:17;;;;;;;7.93;1.73;;;;;;;;;;5015252;28;20260;-67
2023/03/27 03:26:44;;;;;;;14.33;1.73;;;;;;;;;;5015323;28;20217;-67
2023/03/27 03:29:10;;;;;;;6.47;1.70;;;;;;;;;;5022294;28;20226;-67
2023/03/27 03:31:41;;;;;;;9.23;1.40;;;;;;;;;;5024785;28;20925;-68
2023/03/27 03:34:11;;;;;;;12.87;1.53;;;;;;;;;;5031037;28;20288;-67
2023/03/27 03:36:36;;;;;;;9.47;1.30;;;;;;;;;;5026804;28;20195;-68
2023/03/27 03:39:03;;;;;;;7.57;1.57;;;;;;;;;;5027761;28;20194;-67
2023/03/27 03:41:28;;;;;;;9.67;1.37;;;;;;;;;;5027148;28;20566;-67
2023/03/27 03:43:54;;;;;;;10.83;1.40;;;;;;;;;;5031794;28;20190;-67
2023/03/27 03:46:19;;;;;;;8.83;1.13;;;;;;;;;;5027713;28;20197;-67
2023/03/27 03:48:45;;;;;;;6.27;1.23;;;;;;;;;;5023389;28;20191;-67
2023/03/27 03:51:10;;;;;;;8.77;1.47;;;;;;;;;;5026072;28;20213;-67
2023/03/27 03:53:36;;;;;;;9.87;1.20;;;;;;;;;;5025005;28;20198;-67
2023/03/27 03:56:01;;;;;;;6.80;1.40;;;;;;;;;;5021711;28;20213;-67
2023/03/27 03:58:26;;;;;;;10.73;1.57;;;;;;;;;;5029061;28;20244;-67
2023/03/27 04:00:53;;;;;;;6.40;1.33;;;;;;;;;;5033059;28;20240;-67
2023/03/27 04:03:19;;;;;;;6.23;1.63;;;;;;;;;;5028066;28;20664;-67
2023/03/27 04:05:44;;;;;;;11.03;1.57;;;;;;;;;;5024137;28;20198;-67
2023/03/27 04:08:10;;;;;;;10.60;1.70;;;;;;;;;;5029219;28;20199;-67
2023/03/27 04:10:40;;;;;;;7.67;1.30;;;;;;;;;;5027237;28;20233;-67
2023/03/27 04:13:06;;;;;;;3.20;0.97;;;;;;;;;;5022049;28;20263;-68
2023/03/27 04:15:32;;;;;;;8.40;1.17;;;;;;;;;;5027896;28;20265;-67
2023/03/27 04:17:58;;;;;;;5.60;1.37;;;;;;;;;;5029315;28;20225;-67
2023/03/27 04:20:26;;;;;;;8.63;1.20;;;;;;;;;;5022341;28;20187;-67
2023/03/27 04:22:53;;;;;;;4.83;0.93;;;;;;;;;;5024406;28;20225;-67
2023/03/27 04:25:21;;;;;;;5.60;1.00;;;;;;;;;;5028363;28;20209;-67
2023/03/27 04:27:50;;;;;;;9.63;1.17;;;;;;;;;;5028773;28;20397;-67
2023/03/27 04:30:21;;;;;;;5.60;1.17;;;;;;;;;;5025536;28;20213;-67
2023/03/27 04:32:48;;;;;;;12.47;2.13;;;;;;;;;;5023320;28;20190;-67
2023/03/27 04:35:14;;;;;;;6.87;1.03;;;;;;;;;;5010582;28;20286;-67
2023/03/27 04:37:40;;;;;;;3.40;1.00;;;;;;;;;;5020195;28;20188;-68
2023/03/27 04:40:07;;;;;;;4.33;0.90;;;;;;;;;;5034202;28;20555;-66
2023/03/27 04:42:32;;;;;;;7.33;1.00;;;;;;;;;;5023429;28;20288;-67
2023/03/27 04:44:58;;;;;;;7.53;1.13;;;;;;;;;;5029557;28;20194;-66
2023/03/27 04:47:24;;;;;;;4.87;1.00;;;;;;;;;;5029290;28;20190;-66
2023/03/27 04:49:50;;;;;;;6.63;1.20;;;;;;;;;;5025393;28;20245;-66
2023/03/27 04:52:18;;;;;;;7.07;1.13;;;;;;;;;;5023126;28;20666;-66
2023/03/27 04:54:43;;;;;;;7.53;1.17;;;;;;;;;;5028362;28;20201;-66
2023/03/27 04:57:09;;;;;;;5.33;0.80;;;;;;;;;;5035514;28;20568;-66
2023/03/27 04:59:35;;;;;;;10.13;1.20;;;;;;;;;;5019476;28;20194;-67
2023/03/27 05:02:03;;;;;;;4.13;0.87;;;;;;;;;;5023155;28;20210;-67
2023/03/27 05:04:29;;;;;;;3.50;0.77;;;;;;;;;;5027649;28;20485;-67
2023/03/27 05:06:56;;;;;;;7.03;1.20;;;;;;;;;;5021638;28;20205;-67
2023/03/27 05:09:22;;;;;;;7.10;1.00;;;;;;;;;;5022985;28;20194;-67
2023/03/27 05:11:49;;;;;;;6.27;0.97;;;;;;;;;;5022144;28;20224;-67
2023/03/27 05:14:19;;;;;;;5.57;1.10;;;;;;;;;;5021291;28;20190;-67
2023/03/27 05:16:45;;;;;;;7.33;1.30;;;;;;;;;;5022529;28;20830;-67
2023/03/27 05:19:10;;;;;;;5.87;1.07;;;;;;;;;;5025272;28;20194;-67
2023/03/27 05:21:37;;;;;;;7.07;0.70;;;;;;;;;;5014375;28;20565;-66
2023/03/27 05:24:03;;;;;;;6.57;0.90;;;;;;;;;;5026154;28;20251;-67
2023/03/27 05:26:28;;;;;;;5.83;1.10;;;;;;;;;;5024781;28;20438;-66
2023/03/27 05:28:54;;;;;;;7.03;1.03;;;;;;;;;;5034691;28;20697;-66
2023/03/27 05:31:21;;;;;;;7.30;1.20;;;;;;;;;;5030798;28;20686;-68
2023/03/27 05:33:47;;;;;;;5.30;0.87;;;;;;;;;;5031027;28;20661;-66
2023/03/27 05:36:14;;;;;;;2.13;0.67;;;;;;;;;;5029661;28;20399;-66
2023/03/27 05:38:40;;;;;;;4.70;0.93;;;;;;;;;;5034515;28;20195;-66
2023/03/27 05:41:06;;;;;;;4.43;0.90;;;;;;;;;;5032330;28;20205;-67
2023/03/27 05:43:31;;;;;;;5.27;1.27;;;;;;;;;;5019189;28;20191;-66
2023/03/27 05:45:57;;;;;;;9.10;1.80;;;;;;;;;;5029103;28;20285;-67
2023/03/27 05:48:22;;;;;;;3.63;1.10;;;;;;;;;;5024793;28;20562;-66
2023/03/27 05:50:47;;;;;;;5.17;1.07;;;;;;;;;;5017194;28;20226;-66
2023/03/27 05:53:14;;;;;;;6.47;1.50;;;;;;;;;;5022512;28;20277;-66
2023/03/27 05:55:40;;;;;;;4.63;1.03;;;;;;;;;;5016298;28;20183;-67
2023/03/27 05:58:08;;;;;;;5.60;1.20;;;;;;;;;;5026158;28;20197;-66
2023/03/27 06:00:35;;;;;;;6.83;1.57;;;;;;;;;;5025194;28;20245;-66
2023/03/27 06:03:01;;;;;;;8.50;1.00;;;;;;;;;;5028148;28;20201;-66
2023/03/27 06:05:28;;;;;;;10.00;1.73;;;;;;;;;;5022941;28;20276;-66
2023/03/27 06:08:01;;;;;;;8.57;1.47;;;;;;;;;;5025017;28;20284;-66
2023/03/27 06:10:28;;;;;;;5.33;1.27;;;;;;;;;;5018339;28;20329;-66
2023/03/27 06:13:08;;;;;;;10.07;1.17;;;;;;;;;;5026601;28;20190;-66
2023/03/27 06:15:35;;;;;;;5.67;1.07;;;;;;;;;;5020560;28;20252;-66
2023/03/27 06:18:01;;;;;;;5.80;1.53;;;;;;;;;;5010913;28;20896;-66
2023/03/27 06:20:27;;;;;;;7.77;1.50;;;;;;;;;;5018434;28;20182;-66
2023/03/27 06:22:58;;;;;;;4.63;0.90;;;;;;;;;;5020462;28;20900;-66
2023/03/27 06:25:25;;;;;;;5.17;1.30;;;;;;;;;;5020838;28;20705;-66
2023/03/27 06:27:51;;;;;;;6.27;1.23;;;;;;;;;;5015056;28;20217;-66
2023/03/27 06:30:19;;;;;;;8.53;1.20;;;;;;;;;;5027787;28;20214;-66
2023/03/27 06:32:50;;;;;;;5.60;1.40;;;;;;;;;;5024344;28;20193;-66
2023/03/27 06:35:17;;;;;;;4.87;1.17;;;;;;;;;;5020127;28;20195;-66
2023/03/27 06:37:47;;;;;;;8.83;1.47;;;;;;;;;;5007723;28;20269;-66
2023/03/27 06:40:21;;;;;;;6.10;1.33;;;;;;;;;;5022962;28;20204;-66
2023/03/27 06:42:54;;;;;;;6.30;1.30;;;;;;;;;;5010605;28;20190;-66
2023/03/27 06:45:22;;;;;;;8.10;1.17;;;;;;;;;;5008184;28;20214;-66
2023/03/27 06:47:49;;;;;;;8.27;1.53;;;;;;;;;;5025230;28;20194;-66
2023/03/27 06:50:15;;;;;;;3.53;0.90;;;;;;;;;;5027773;28;20222;-66
2023/03/27 06:52:41;;;;;;;6.20;1.27;;;;;;;;;;5025496;28;20209;-66
2023/03/27 06:55:07;;;;;;;12.27;1.60;;;;;;;;;;5011142;28;20201;-66
2023/03/27 06:57:32;;;;;;;6.10;1.63;;;;;;;;;;5021637;28;20278;-66
2023/03/27 06:59:58;;;;;;;13.80;1.73;;;;;;;;;;5020245;28;20280;-66
2023/03/27 07:02:23;;;;;;;5.60;1.40;;;;;;;;;;5018177;28;20542;-66
2023/03/27 07:04:48;;;;;;;9.20;1.47;;;;;;;;;;5019623;28;20203;-66
2023/03/27 07:07:14;;;;;;;6.87;1.20;;;;;;;;;;5017994;28;20562;-66
2023/03/27 07:09:40;;;;;;;8.20;1.43;;;;;;;;;;5039505;28;20194;-66
2023/03/27 07:12:07;;;;;;;9.77;1.60;;;;;;;;;;5023162;28;20213;-66
2023/03/27 07:14:33;;;;;;;6.07;1.50;;;;;;;;;;5021555;28;20621;-66
2023/03/27 07:16:58;;;;;;;10.10;1.60;;;;;;;;;;5015496;28;20195;-66
2023/03/27 07:19:24;;;;;;;6.20;1.33;;;;;;;;;;5024451;28;20236;-66
2023/03/27 07:21:49;;;;;;;8.83;1.60;;;;;;;;;;5027104;28;20168;-67
2023/03/27 07:24:14;;;;;;;6.77;1.80;;;;;;;;;;5022853;28;20190;-66
2023/03/27 07:26:40;;;;;;;9.83;2.87;;;;;;;;;;5024759;28;20191;-67
2023/03/27 07:29:09;;;;;;;8.43;1.47;;;;;;;;;;5020886;28;20301;-67
2023/03/27 07:31:35;;;;;;;6.00;1.50;;;;;;;;;;5023177;28;20565;-67
2023/03/27 07:34:01;;;;;;;7.50;1.77;;;;;;;;;;5019774;28;20456;-67
2023/03/27 07:36:27;;;;;;;7.03;1.07;;;;;;;;;;5028372;28;20584;-67
2023/03/27 07:38:53;;;;;;;11.17;1.70;;;;;;;;;;5028036;28;20194;-67
2023/03/27 07:41:18;;;;;;;9.80;1.93;;;;;;;;;;5013675;28;20191;-67
2023/03/27 07:43:44;;;;;;;4.17;1.23;;;;;;;;;;5017423;28;20197;-67
2023/03/27 07:46:09;;;;;;;10.50;1.80;;;;;;;;;;5030448;28;20185;-67
2023/03/27 07:48:34;;;;;;;9.50;1.73;;;;;;;;;;5033853;28;20225;-67
2023/03/27 07:51:01;;;;;;;6.03;1.60;;;;;;;;;;5015961;28;20222;-67
2023/03/27 07:53:27;;;;;;;10.00;1.60;;;;;;;;;;5041269;28;20177;-67
2023/03/27 07:55:53;;;;;;;12.33;1.90;;;;;;;;;;5014582;28;20217;-67
2023/03/27 07:58:20;;;;;;;9.30;1.57;;;;;;;;;;5013076;28;20214;-66
2023/03/27 08:00:52;;;;;;;8.07;1.83;;;;;;;;;;5011043;28;20199;-68
2023/03/27 08:03:18;;;;;;;7.27;1.60;;;;;;;;;;5028596;28;20692;-67
2023/03/27 08:05:44;;;;;;;9.00;2.00;;;;;;;;;;5026152;28;20493;-66
2023/03/27 08:08:09;;;;;;;7.73;2.23;;;;;;;;;;5028953;28;20186;-66
2023/03/27 08:10:36;;;;;;;11.83;1.80;;;;;;;;;;5020796;28;20242;-66
2023/03/27 08:13:02;;;;;;;8.20;1.40;;;;;;;;;;5027318;28;20194;-66
2023/03/27 08:15:28;;;;;;;5.33;1.50;;;;;;;;;;5029408;28;20314;-66
2023/03/27 08:17:55;;;;;;;10.70;1.60;;;;;;;;;;5029844;28;20277;-66
2023/03/27 08:20:22;;;;;;;6.80;1.50;;;;;;;;;;5024819;28;20190;-66
2023/03/27 08:22:49;;;;;;;6.53;1.47;;;;;;;;;;5013883;28;20191;-66
2023/03/27 08:25:15;;;;;;;7.00;1.33;;;;;;;;;;5028237;28;20301;-66
2023/03/27 08:27:43;;;;;;;6.13;1.40;;;;;;;;;;5031356;28;20507;-66
2023/03/27 08:30:10;;;;;;;4.57;1.33;;;;;;;;;;5027642;28;20234;-66
2023/03/27 08:32:38;;;;;;;7.93;1.40;;;;;;;;;;5016345;28;20219;-66
2023/03/27 08:35:03;;;;;;;6.63;0.87;;;;;;;;;;5019702;28;20245;-66
2023/03/27 08:37:29;;;;;;;6.03;1.20;;;;;;;;;;5024642;28;20213;-67
2023/03/27 08:39:57;;;;;;;4.73;0.80;;;;;;;;;;5030913;28;20258;-66
2023/03/27 08:42:28;;;;;;;6.17;1.00;;;;;;;;;;5017724;28;20265;-66
2023/03/27 08:44:55;;;;;;;6.67;1.10;;;;;;;;;;5026700;28;20288;-66
2023/03/27 08:47:34;;;;;;;7.87;0.77;;;;;;;;;;5030878;28;20190;-66
2023/03/27 08:50:04;;;;;;;2.37;0.47;;;;;;;;;;5032925;28;20281;-66
2023/03/27 08:52:32;;;;;;;8.43;0.80;;;;;;;;;;5031594;28;20174;-66
2023/03/27 08:55:12;;;;;;;4.20;0.43;;;;;;;;;;5022958;28;20329;-67
2023/03/27 08:57:37;;;;;;;4.63;0.83;;;;;;;;;;5027426;28;20265;-65
2023/03/27 09:00:08;;;;;;;3.87;0.43;;;;;;;;;;5031960;28;20336;-68
2023/03/27 09:02:51;;;;;;;1.90;0.40;;;;;;;;;;5013126;28;20201;-67
2023/03/27 09:05:47;;;;;;;7.63;1.07;;;;;;;;;;5026624;28;20608;-66
2023/03/27 09:08:48;;;;;;;4.63;0.90;;;;;;;;;;5029776;28;20453;-68
2023/03/27 09:11:40;;;;;;;2.93;0.47;;;;;;;;;;5013338;28;20229;-66
2023/03/27 09:14:22;;;;;;;5.00;1.03;;;;;;;;;;5026478;28;20202;-66
2023/03/27 09:16:49;;;;;;;8.10;1.87;;;;;;;;;;5021517;28;20236;-66
2023/03/27 09:19:43;;;;;;;11.30;1.00;;;;;;;;;;5026377;28;20186;-66
2023/03/27 09:22:18;;;;;;;4.97;1.00;;;;;;;;;;5021370;28;20666;-66
2023/03/27 09:24:51;;;;;;;5.67;0.90;;;;;;;;;;5024170;28;20255;-66
2023/03/27 09:27:32;;;;;;;7.03;1.13;;;;;;;;;;5029436;28;20192;-67
2023/03/27 09:30:22;;;;;;;5.60;0.70;;;;;;;;;;5022750;28;20321;-67
2023/03/27 09:32:52;;;;;;;5.20;0.80;;;;;;;;;;5010705;28;20206;-66
2023/03/27 09:35:19;;;;;;;7.63;2.33;;;;;;;;;;5020968;28;20195;-66
2023/03/27 09:37:55;;;;;;;5.73;1.07;;;;;;;;;;5026703;28;20233;-67
2023/03/27 09:40:39;;;;;;;4.53;1.00;;;;;;;;;;5027516;28;20185;-66
2023/03/27 09:43:17;;;;;;;6.23;1.00;;;;;;;;;;5012867;28;20333;-67
2023/03/27 09:45:45;;;;;;;6.40;0.70;;;;;;;;;;5017340;28;20277;-66
2023/03/27 09:48:45;;;;;;;7.57;1.30;;;;;;;;;;5018747;28;20194;-66
2023/03/27 09:51:36;;;;;;;4.80;1.03;;;;;;;;;;5015996;28;20191;-68
2023/03/27 09:54:02;;;;;;;3.47;0.53;;;;;;;;;;5037758;28;20205;-68
2023/03/27 09:56:29;;;;;;;2.83;0.40;;;;;;;;;;5026353;28;20273;-67
2023/03/27 09:58:56;;;;;;;4.27;0.63;;;;;;;;;;5026573;28;20194;-66
2023/03/27 10:01:36;;;;;;;2.03;0.60;;;;;;;;;;5021372;28;20306;-67
2023/03/27 10:04:12;;;;;;;3.00;0.60;;;;;;;;;;5015787;28;20190;-67
2023/03/27 10:06:47;;;;;;;5.40;0.60;;;;;;;;;;5020012;28;20197;-67
2023/03/27 10:09:33;;;;;;;5.40;0.77;;;;;;;;;;5026130;28;20197;-67
2023/03/27 10:12:06;;;;;;;2.83;0.40;;;;;;;;;;5011222;28;20211;-67
2023/03/27 10:14:36;;;;;;;1.77;0.40;;;;;;;;;;5015093;28;20222;-67
2023/03/27 10:17:03;;;;;;;3.40;0.70;;;;;;;;;;5035864;28;20704;-66
2023/03/27 10:19:35;;;;;;;2.50;0.50;;;;;;;;;;5026425;28;20183;-66
2023/03/27 10:22:11;;;;;;;4.87;1.10;;;;;;;;;;5026241;28;20529;-67
2023/03/27 10:24:38;;;;;;;4.40;0.80;;;;;;;;;;5023497;28;20179;-67
2023/03/27 10:27:07;;;;;;;5.33;0.70;;;;;;;;;;5010555;28;20191;-68
2023/03/27 10:29:34;;;;;;;2.60;0.50;;;;;;;;;;5010611;28;20696;-68
2023/03/27 10:32:04;;;;;;;3.60;0.50;;;;;;;;;;5016761;28;20219;-67
2023/03/27 10:34:38;;;;;;;5.37;0.73;;;;;;;;;;5019142;28;20227;-67
2023/03/27 10:37:19;;;;;;;8.17;0.83;;;;;;;;;;5016847;28;20664;-67
2023/03/27 10:39:46;;;;;;;2.67;0.80;;;;;;;;;;5011588;28;20235;-68
2023/03/27 10:42:13;;;;;;;6.70;1.13;;;;;;;;;;5027534;28;20201;-68
2023/03/27 10:44:39;;;;;;;4.30;0.70;;;;;;;;;;5026564;28;20724;-67
2023/03/27 10:47:17;;;;;;;5.17;1.30;;;;;;;;;;5009495;28;20187;-68
2023/03/27 10:49:47;;;;;;;3.13;0.77;;;;;;;;;;5036305;28;20182;-68
2023/03/27 10:52:30;;;;;;;6.03;0.83;;;;;;;;;;5027727;28;20672;-68
2023/03/27 10:55:29;;;;;;;7.17;1.33;;;;;;;;;;5021178;28;20194;-67
2023/03/27 10:58:00;;;;;;;4.23;1.00;;;;;;;;;;5012783;28;20344;-68
2023/03/27 11:00:31;;;;;;;3.50;0.80;;;;;;;;;;5020261;28;20269;-68
2023/03/27 11:02:57;;;;;;;5.13;0.80;;;;;;;;;;5016636;28;20271;-67
2023/03/27 11:05:30;;;;;;;6.07;1.13;;;;;;;;;;5024761;28;20195;-67
2023/03/27 11:08:14;;;;;;;5.47;0.90;;;;;;;;;;5022515;28;20217;-68
2023/03/27 11:10:45;;;;;;;3.30;1.00;;;;;;;;;;5021311;28;20216;-68
2023/03/27 11:13:21;;;;;;;4.97;0.87;;;;;;;;;;5027380;28;20201;-67
2023/03/27 11:15:55;;;;;;;4.40;0.70;;;;;;;;;;5027677;28;20553;-69
2023/03/27 11:18:25;;;;;;;3.40;0.70;;;;;;;;;;5013942;28;20605;-68
2023/03/27 11:20:56;;;;;;;20.67;1.97;;;;;;;;;;5015615;28;20559;-68
2023/03/27 11:23:32;;;;;;;28.77;2.40;;;;;;;;;;5019940;28;20224;-68
2023/03/27 11:26:01;;;;;;;8.33;1.67;;;;;;;;;;5023348;28;20297;-68
2023/03/27 11:28:40;;;;;;;6.00;0.98;;;;;;;;;;5017458;28;20609;-68
2023/03/27 11:31:37;;;;;;;7.88;1.40;;;;;;;;;;5018734;28;20728;-68
2023/03/27 11:34:18;;;;;;;7.65;0.90;;;;;;;;;;5019139;28;20702;-69
2023/03/27 11:36:51;;;;;;;5.22;0.70;;;;;;;;;;5014957;28;20269;-68
2023/03/27 11:39:36;;;;;;;5.28;0.88;;;;;;;;;;5026169;28;20226;-67
2023/03/27 11:42:12;;;;;;;6.20;1.10;;;;;;;;;;5026938;28;20222;-68
2023/03/27 11:44:38;;;;;;;3.78;0.95;;;;;;;;;;5013276;28;20189;-68
2023/03/27 11:47:28;;;;;;;5.70;1.10;;;;;;;;;;5025809;28;20229;-69
2023/03/27 11:50:31;;;;;;;3.67;0.97;;;;;;;;;;5027111;28;20560;-69
2023/03/27 11:53:35;;;;;;;4.80;0.93;;;;;;;;;;5012661;28;20201;-68
2023/03/27 11:56:10;;;;;;;2.67;0.73;;;;;;;;;;5020370;28;20273;-70
2023/03/27 11:59:06;;;;;;;5.22;0.98;;;;;;;;;;5029877;28;20197;-68
2023/03/27 12:01:55;;;;;;;4.82;0.50;;;;;;;;;;5030788;28;20216;-69
2023/03/27 12:04:44;;;;;;;5.68;0.68;;;;;;;;;;5027164;28;20634;-69
2023/03/27 12:07:30;;;;;;;1.38;0.45;;;;;;;;;;5017682;28;20705;-72
2023/03/27 12:10:14;;;;;;;3.08;0.50;;;;;;;;;;5019195;28;20480;-69
2023/03/27 12:12:58;;;;;;;1.42;0.40;;;;;;;;;;5017520;28;20198;-67
2023/03/27 12:15:49;;;;;;;0.75;0.25;;;;;;;;;;5014811;28;20286;-67
2023/03/27 12:18:20;;;;;;;0.90;0.60;;;;;;;;;;5024149;28;20190;-68
2023/03/27 12:20:59;;;;;;;2.45;0.40;;;;;;;;;;5028837;28;20210;-69
2023/03/27 12:23:41;;;;;;;3.95;0.60;;;;;;;;;;5029285;28;20190;-67
2023/03/27 12:26:22;;;;;;;2.08;0.40;;;;;;;;;;5021425;28;20256;-67
2023/03/27 12:29:09;;;;;;;4.50;0.68;;;;;;;;;;5019081;28;20536;-68
2023/03/27 12:31:51;;;;;;;3.08;0.30;;;;;;;;;;5021981;28;20324;-71
2023/03/27 12:34:48;;;;;;;1.27;0.30;;;;;;;;;;5030632;28;20321;-68
2023/03/27 12:37:15;;;;;;;1.80;0.20;;;;;;;;;;5023596;28;20566;-68
2023/03/27 12:39:47;;;;;;;3.05;0.40;;;;;;;;;;5018931;28;20251;-69
2023/03/27 12:42:14;;;;;;;2.65;0.50;;;;;;;;;;5024971;28;20194;-74
2023/03/27 12:45:13;;;;;;;2.20;0.45;;;;;;;;;;5011367;28;20296;-78
2023/03/27 12:48:01;;;;;;;1.73;0.50;;;;;;;;;;5028783;28;20242;-78
2023/03/27 12:50:32;;;;;;;1.67;0.20;;;;;;;;;;5027320;28;20344;-74
2023/03/27 12:53:07;;;;;;;1.60;0.37;;;;;;;;;;5032645;28;20248;-80
2023/03/27 12:55:35;;;;;;;2.33;0.33;;;;;;;;;;5034748;28;20189;-76
2023/03/27 12:58:02;;;;;;;2.87;0.77;;;;;;;;;;5018491;28;20581;-72
2023/03/27 13:00:28;;;;;;;2.73;0.37;;;;;;;;;;5031200;28;20214;-72
2023/03/27 13:03:20;;;;;;;0.50;0.40;;;;;;;;;;5026176;28;20399;-71
2023/03/27 13:06:23;;;;;;;3.37;0.60;;;;;;;;;;5017398;28;20194;-71
2023/03/27 13:09:07;;;;;;;4.57;0.53;;;;;;;;;;5012131;28;20218;-71
2023/03/27 13:11:52;;;;;;;3.87;0.50;;;;;;;;;;5033273;28;20214;-70
2023/03/27 13:14:41;;;;;;;6.27;1.30;;;;;;;;;;5025840;28;20210;-69
2023/03/27 13:17:37;;;;;;;8.43;1.00;;;;;;;;;;5008069;28;20198;-70
2023/03/27 13:20:24;;;;;;;1.33;0.50;;;;;;;;;;5023246;28;20195;-71
2023/03/27 13:23:02;;;;;;;5.63;0.50;;;;;;;;;;5014340;28;20195;-69
2023/03/27 13:25:34;;;;;;;4.57;0.70;;;;;;;;;;5045478;28;20197;-70
2023/03/27 13:28:28;;;;;;;7.90;1.13;;;;;;;;;;5019700;28;20197;-70
2023/03/27 13:30:57;;;;;;;4.60;0.80;;;;;;;;;;5024796;28;20225;-69
2023/03/27 13:33:38;;;;;;;5.95;0.93;;;;;;;;;;5016029;28;20263;-71
2023/03/27 13:36:06;;;;;;;4.88;0.70;;;;;;;;;;5015951;28;20201;-71
2023/03/27 13:38:45;;;;;;;2.67;0.50;;;;;;;;;;5020124;28;20182;-77
2023/03/27 13:41:44;;;;;;;2.80;0.55;;;;;;;;;;5028322;28;20189;-75
2023/03/27 13:44:29;;;;;;;2.92;0.50;;;;;;;;;;5014578;28;20202;-73
2023/03/27 13:47:00;;;;;;;5.55;0.50;;;;;;;;;;5024286;28;20194;-74
2023/03/27 13:49:43;;;;;;;3.60;0.70;;;;;;;;;;5028412;28;20197;-74
2023/03/27 13:52:37;;;;;;;6.93;0.50;;;;;;;;;;5021844;28;20205;-72
2023/03/27 13:55:15;;;;;;;9.73;1.07;;;;;;;;;;5017417;28;20198;-73
2023/03/27 13:58:03;;;;;;;5.80;0.70;;;;;;;;;;5026744;28;20193;-72
2023/03/27 14:00:41;;;;;;;10.77;1.47;;;;;;;;;;5021556;28;20217;-69
2023/03/27 14:03:40;;;;;;;6.32;0.82;;;;;;;;;;5024005;28;20186;-69
2023/03/27 14:06:27;;;;;;;4.25;0.70;;;;;;;;;;5014283;28;20272;-68
2023/03/27 14:09:07;;;;;;;5.80;0.90;;;;;;;;;;5028193;28;20209;-68
2023/03/27 14:12:00;;;;;;;7.50;1.13;;;;;;;;;;5025502;28;20213;-69
2023/03/27 14:14:45;;;;;;;2.92;0.80;;;;;;;;;;5031649;28;20278;-67
2023/03/27 14:17:39;;;;;;;6.70;1.00;;;;;;;;;;5019873;28;20225;-67
2023/03/27 14:20:28;;;;;;;13.47;1.30;;;;;;;;;;5019061;28;20194;-68
2023/03/27 14:22:59;;;;;;;7.37;1.03;;;;;;;;;;5024544;28;20198;-68
2023/03/27 14:25:33;;;;;;;6.88;0.90;;;;;;;;;;5015651;28;20198;-67
2023/03/27 14:27:59;;;;;;;6.13;1.20;;;;;;;;;;5023349;28;20186;-67
2023/03/27 14:30:27;;;;;;;4.28;0.73;;;;;;;;;;5027693;28;20214;-67
2023/03/27 14:32:55;;;;;;;8.10;0.93;;;;;;;;;;5016185;28;20206;-67
2023/03/27 14:35:42;;;;;;;4.75;0.70;;;;;;;;;;5026584;28;20199;-67
2023/03/27 14:38:23;;;;;;;4.75;0.70;;;;;;;;;;5014358;28;20190;-67
2023/03/27 14:40:54;;;;;;;5.97;0.70;;;;;;;;;;5026506;28;20197;-68
2023/03/27 14:43:20;;;;;;;5.93;0.82;;;;;;;;;;5018818;28;20190;-69
2023/03/27 14:45:49;;;;;;;2.00;0.68;;;;;;;;;;5023883;28;20191;-67
2023/03/27 14:48:29;;;;;;;6.03;0.80;;;;;;;;;;5028054;28;20258;-68
2023/03/27 14:51:00;;;;;;;3.65;0.70;;;;;;;;;;5010796;28;20214;-68
2023/03/27 14:53:35;;;;;;;4.85;1.20;;;;;;;;;;5021382;28;20198;-68
2023/03/27 14:56:05;;;;;;;8.13;1.27;;;;;;;;;;5021307;28;20610;-68
2023/03/27 14:58:30;;;;;;;5.68;0.77;;;;;;;;;;5031096;28;20218;-69
2023/03/27 15:00:58;;;;;;;4.47;0.88;;;;;;;;;;5025861;28;20242;-67
2023/03/27 15:03:28;;;;;;;9.15;1.20;;;;;;;;;;5010845;28;20239;-68
2023/03/27 15:06:03;;;;;;;12.40;1.13;;;;;;;;;;5017588;28;20289;-67
2023/03/27 15:08:35;;;;;;;6.53;1.00;;;;;;;;;;5019372;28;20641;-68
2023/03/27 15:11:07;;;;;;;7.03;1.08;;;;;;;;;;5017982;28;20449;-68
2023/03/27 15:13:35;;;;;;;4.70;0.93;;;;;;;;;;5019019;28;20559;-69
2023/03/27 15:16:02;;;;;;;6.85;1.23;;;;;;;;;;5020577;28;20575;-69